Terminal Aerodrome Forecast
Issued by NWS

Home | Current Version | Previous Version | Text Only | Print | Product List | Glossary On
Versions: 1 2 3 4 5 6 7 8 9 10 11 12 13 14 15 16 17
000
FTUS46 KSEW 232328
TAFOLM
TAF
KOLM 232328Z 2400/2424 18012KT 6SM -RA BR FEW015 SCT025 OVC045
      TEMPO 2400/2404 3SM -RA BR BKN015 OVC025
     FM240400 19008KT 5SM -RA BR SCT008 BKN015 OVC025
     FM240900 19008KT 3SM -SHRA BR SCT008 OVC015=

USA.gov is the U.S. government's official web portal to all federal, state and local government web resources and services.